Nador, Morocco

8:07 AM WET on February 08, 2016 (GMT +0000)
Arwi | | Change Station
CLOSE
Current Station
Airport
Location: Nador/Arwi,
Elevation: 574 ft
Nearby Weather Stations

Elev 574 ft 34.99 °N, 3.03 °W | Updated 7 minutes ago

Clear
Clear
45 °F
Feels Like 43 °F
N
4
Wind Variable Wind from West

Today
High -- | Low -- °F
--% Chance of Precip.
Yesterday
High -- | Low -- °F
Precip. -- in
Pressure 30.39 in
Visibility -9999.0 miles
Clouds
Windchill 43 °F
Dew Point 45 °F
Humidity 100%
Rainfall 0.00 in
Snow Depth Not available.
7:05 AM 5:47 PM
Waning Crescent, 0% visible
METAR GMMW 080800Z 26003KT 230V290 CAVOK 07/07 Q1029 NOSIG
Pressure 30.39 in
Visibility -9999.0 miles
Clouds
Windchill 43 °F
Dew Point 45 °F
Humidity 100%
Rainfall 0.00 in
Snow Depth Not available.
7:05 AM 5:47 PM
Waning Crescent, 0% visible
METAR GMMW 080800Z 26003KT 230V290 CAVOK 07/07 Q1029 NOSIG

10-Day Weather Forecast

No radar image for this location.
×

Almanac

Astronomy

Feb. 08, 2016 Rise Set
Actual Time
Civil Twilight
Nautical Twilight
Astronomical Twilight
Moon
Length of Visible Light
Length of Day
Tomorrow will be .
, % of the Moon is Illuminated

Today's Extremes

Country Highs Country Lows

Community

WunderPhotos

Upload Photos

1,891,412 photos uploaded!

WunderBlog® & News

Nearby

Air Quality

  Air Quality AQ Index Pollutant
Not available.

Snow Depth

Station Depth Elevation

Earthquake Activity

City Distance Mag. Time & Date
Minimum magnitude displayed is 2.5.

Coastal Water Temperatures

Place Temperature

Stations

Nearby Weather Stations

Station Location Temp. Windchill Dew Point Humidity Wind Precip. Elev Updated Type